createdAt,value
2018-06-19T00:00:36.579Z,5.70
2018-06-19T00:03:05.276Z,7.40
2018-06-19T00:05:33.767Z,4.77
2018-06-19T00:08:02.916Z,6.07
2018-06-19T00:10:32.084Z,7.20
2018-06-19T00:13:00.527Z,5.57
2018-06-19T00:15:28.936Z,6.93
2018-06-19T00:18:01.403Z,8.37
2018-06-19T00:20:29.832Z,7.13
2018-06-19T00:22:58.359Z,7.17
2018-06-19T00:25:26.828Z,5.37
2018-06-19T00:27:55.289Z,5.20
2018-06-19T00:30:23.707Z,7.30
2018-06-19T00:32:52.099Z,5.37
2018-06-19T00:35:20.498Z,6.67
2018-06-19T00:37:48.932Z,7.13
2018-06-19T00:40:17.352Z,8.40
2018-06-19T00:42:45.770Z,5.67
2018-06-19T00:45:14.181Z,8.20
2018-06-19T00:47:42.617Z,8.60
2018-06-19T00:50:10.684Z,6.17
2018-06-19T00:52:39.354Z,6.17
2018-06-19T00:55:07.740Z,6.73
2018-06-19T00:57:36.217Z,5.40
2018-06-19T01:00:04.633Z,5.53
2018-06-19T01:02:33.059Z,7.53
2018-06-19T01:05:01.453Z,6.03
2018-06-19T01:07:29.878Z,6.00
2018-06-19T01:09:58.282Z,5.73
2018-06-19T01:12:26.711Z,5.80
2018-06-19T01:14:55.139Z,5.43
2018-06-19T01:17:23.585Z,5.83
2018-06-19T01:19:52.062Z,5.47
2018-06-19T01:22:20.436Z,4.93
2018-06-19T01:24:48.857Z,6.03
2018-06-19T01:27:17.409Z,6.37
2018-06-19T01:29:45.508Z,8.30
2018-06-19T01:32:13.912Z,5.10
2018-06-19T01:34:42.297Z,7.33
2018-06-19T01:37:10.705Z,7.47
2018-06-19T01:39:39.112Z,6.57
2018-06-19T01:42:07.497Z,6.30
2018-06-19T01:44:35.887Z,6.23
2018-06-19T01:47:04.309Z,5.63
2018-06-19T01:49:32.692Z,5.57
2018-06-19T01:52:01.118Z,6.17
2018-06-19T01:54:29.548Z,7.03
2018-06-19T01:56:57.942Z,6.50
2018-06-19T01:59:26.380Z,8.03
2018-06-19T02:01:54.786Z,6.40
2018-06-19T02:04:23.192Z,7.63
2018-06-19T02:06:51.597Z,7.53
2018-06-19T02:09:20.025Z,5.90
2018-06-19T02:11:48.440Z,8.87
2018-06-19T02:14:16.834Z,6.93
2018-06-19T02:16:45.251Z,5.67
2018-06-19T02:19:13.928Z,6.50
2018-06-19T02:21:42.364Z,9.20
2018-06-19T02:24:10.431Z,9.63
2018-06-19T02:26:38.503Z,9.40
2018-06-19T02:29:06.911Z,7.67
2018-06-19T02:31:35.312Z,8.00
2018-06-19T02:34:03.804Z,7.03
2018-06-19T02:36:32.221Z,9.37
2018-06-19T02:39:00.757Z,7.90
2018-06-19T02:41:29.171Z,8.37
2018-06-19T02:43:57.244Z,9.60
2018-06-19T02:46:25.629Z,9.00
2018-06-19T02:48:54.198Z,9.33
2018-06-19T02:51:22.612Z,17.57
2018-06-19T02:53:51.004Z,21.07
2018-06-19T02:56:19.496Z,12.27
2018-06-19T02:58:47.979Z,10.03
2018-06-19T03:01:16.353Z,9.70
2018-06-19T03:03:44.756Z,7.80
2018-06-19T03:06:13.218Z,10.20
2018-06-19T03:08:41.623Z,9.83
2018-06-19T03:11:10.128Z,7.53
2018-06-19T03:13:38.537Z,9.67
2018-06-19T03:16:06.973Z,8.30
2018-06-19T03:18:35.380Z,8.50
2018-06-19T03:21:03.793Z,7.97
2018-06-19T03:23:32.181Z,10.00
2018-06-19T03:26:00.612Z,8.17
2018-06-19T03:28:28.992Z,6.57
2018-06-19T03:30:57.370Z,7.20
2018-06-19T03:33:25.776Z,8.70
2018-06-19T03:35:53.885Z,8.87
2018-06-19T03:38:22.277Z,7.33
2018-06-19T03:40:51.073Z,8.50
2018-06-19T03:43:19.463Z,7.80
2018-06-19T03:45:47.944Z,8.50
2018-06-19T03:48:16.332Z,8.73
2018-06-19T03:50:44.720Z,8.93
2018-06-19T03:53:13.141Z,8.20
2018-06-19T03:55:41.550Z,9.37
2018-06-19T03:58:09.951Z,9.93
2018-06-19T04:00:38.392Z,12.77
2018-06-19T04:03:06.864Z,10.07
2018-06-19T04:05:35.352Z,12.53
2018-06-19T04:08:03.788Z,7.77
2018-06-19T04:10:32.239Z,9.37
2018-06-19T04:13:00.571Z,7.47
2018-06-19T04:15:28.932Z,8.97
2018-06-19T04:17:57.331Z,10.70
2018-06-19T04:20:25.772Z,6.27
2018-06-19T04:22:54.472Z,6.63
2018-06-19T04:25:22.964Z,10.23
2018-06-19T04:27:51.332Z,9.93
2018-06-19T04:30:20.112Z,8.00
2018-06-19T04:32:48.433Z,6.43
2018-06-19T04:35:17.016Z,7.33
2018-06-19T04:37:45.440Z,5.60
2018-06-19T04:40:13.877Z,7.03
2018-06-19T04:42:42.300Z,6.43
2018-06-19T04:45:10.671Z,7.93
2018-06-19T04:47:39.102Z,7.40
2018-06-19T04:50:07.606Z,6.10
2018-06-19T04:52:35.993Z,6.67
2018-06-19T04:55:04.414Z,6.03
2018-06-19T04:57:33.491Z,8.57
2018-06-19T05:00:01.999Z,6.70
2018-06-19T05:02:30.568Z,8.37
2018-06-19T05:05:00.035Z,7.47
2018-06-19T05:07:28.468Z,6.77
2018-06-19T05:09:56.924Z,7.10
2018-06-19T05:12:25.337Z,6.37
2018-06-19T05:14:56.153Z,8.47
2018-06-19T05:17:25.206Z,6.67
2018-06-19T05:19:55.555Z,8.63
2018-06-19T05:22:24.014Z,8.47
2018-06-19T05:24:52.416Z,6.87
2018-06-19T05:27:20.828Z,7.00
2018-06-19T05:29:49.232Z,8.43
2018-06-19T05:32:17.773Z,8.47
2018-06-19T05:34:46.144Z,8.83
2018-06-19T05:37:14.541Z,12.23
2018-06-19T05:39:42.928Z,9.53
2018-06-19T05:42:11.329Z,13.40
2018-06-19T05:44:39.759Z,8.13
2018-06-19T05:47:08.233Z,7.53
2018-06-19T05:49:36.725Z,7.67
2018-06-19T05:52:05.211Z,10.13
2018-06-19T05:54:33.968Z,7.57
2018-06-19T05:57:02.414Z,9.70
2018-06-19T05:59:30.817Z,7.40
2018-06-19T06:01:59.264Z,7.60
2018-06-19T06:04:27.698Z,6.70
2018-06-19T06:06:56.100Z,10.33
2018-06-19T06:09:24.564Z,9.93
2018-06-19T06:11:53.017Z,8.60
2018-06-19T06:14:21.437Z,10.23
2018-06-19T06:16:50.324Z,12.10
2018-06-19T06:19:18.723Z,6.13
2018-06-19T06:21:47.137Z,8.57
2018-06-19T06:24:15.556Z,9.07
2018-06-19T06:26:44.093Z,7.97
2018-06-19T06:29:12.670Z,12.23
2018-06-19T06:31:41.049Z,15.43
2018-06-19T06:34:09.444Z,9.70
2018-06-19T06:36:37.852Z,10.30
2018-06-19T06:39:07.700Z,9.90
2018-06-19T06:41:35.967Z,7.70
2018-06-19T06:44:04.433Z,8.00
2018-06-19T06:46:32.902Z,9.13
2018-06-19T06:49:01.418Z,8.60
2018-06-19T06:51:29.849Z,10.83
2018-06-19T06:53:58.240Z,7.20
2018-06-19T06:56:26.701Z,8.27
2018-06-19T06:58:55.151Z,6.63
2018-06-19T07:01:23.701Z,8.37
2018-06-19T07:03:52.249Z,6.10
2018-06-19T07:06:20.676Z,9.53
2018-06-19T07:08:49.127Z,8.20
2018-06-19T07:11:17.541Z,8.37
2018-06-19T07:13:45.920Z,6.77
2018-06-19T07:16:14.341Z,8.73
2018-06-19T07:18:42.943Z,8.53
2018-06-19T07:21:11.573Z,6.73
2018-06-19T07:23:39.828Z,7.57
2018-06-19T07:26:08.288Z,9.60
2018-06-19T07:28:36.671Z,6.43
2018-06-19T07:31:05.464Z,6.40
2018-06-19T07:33:33.848Z,5.00
2018-06-19T07:36:02.306Z,9.13
2018-06-19T07:38:30.708Z,7.97
2018-06-19T07:40:59.094Z,7.97
2018-06-19T07:43:27.533Z,7.60
2018-06-19T07:45:56.668Z,7.67
2018-06-19T07:48:25.177Z,5.83
2018-06-19T07:50:53.920Z,8.60
2018-06-19T07:53:22.391Z,6.27
2018-06-19T07:55:50.764Z,7.77
2018-06-19T07:58:19.301Z,8.87
2018-06-19T08:00:47.764Z,10.27
2018-06-19T08:03:16.220Z,6.53
2018-06-19T08:05:44.606Z,8.33
2018-06-19T08:08:12.997Z,5.43
2018-06-19T08:10:41.524Z,11.73
2018-06-19T08:13:09.972Z,7.60
2018-06-19T08:15:38.420Z,7.53
2018-06-19T08:18:06.977Z,8.93
2018-06-19T08:20:35.388Z,9.27
2018-06-19T08:23:03.817Z,9.43
2018-06-19T08:25:32.220Z,8.90
2018-06-19T08:28:00.739Z,7.07
2018-06-19T08:30:29.159Z,11.43
2018-06-19T08:32:58.401Z,9.70
2018-06-19T08:35:26.884Z,8.47
2018-06-19T08:37:55.268Z,9.77
2018-06-19T08:40:23.674Z,9.67
2018-06-19T08:42:52.104Z,10.20
2018-06-19T08:45:20.533Z,8.57
2018-06-19T08:47:48.960Z,7.90
2018-06-19T08:50:17.375Z,6.83
2018-06-19T08:52:45.820Z,7.97
2018-06-19T08:55:14.224Z,9.63
2018-06-19T08:57:42.595Z,8.43
2018-06-19T09:00:11.066Z,9.20
2018-06-19T09:02:39.480Z,10.20
2018-06-19T09:05:07.919Z,8.27
2018-06-19T09:07:36.657Z,9.50
2018-06-19T09:10:05.094Z,9.33
2018-06-19T09:12:33.541Z,6.60
2018-06-19T09:15:01.960Z,9.03
2018-06-19T09:17:30.364Z,7.73
2018-06-19T09:19:58.837Z,9.47
2018-06-19T09:22:27.243Z,8.50
2018-06-19T09:24:55.664Z,8.70
2018-06-19T09:27:24.391Z,10.90
2018-06-19T09:29:52.887Z,7.93
2018-06-19T09:32:21.332Z,9.33
2018-06-19T09:34:49.775Z,8.80
2018-06-19T09:37:18.177Z,8.90
2018-06-19T09:39:46.615Z,12.57
2018-06-19T09:42:14.979Z,9.40
2018-06-19T09:44:43.573Z,11.23
2018-06-19T09:47:11.990Z,12.60
2018-06-19T09:49:40.378Z,10.37
2018-06-19T09:52:09.204Z,12.20
2018-06-19T09:54:37.719Z,8.87
2018-06-19T09:57:06.296Z,6.80
2018-06-19T09:59:34.846Z,12.83
2018-06-19T10:02:03.254Z,8.63
2018-06-19T10:04:31.678Z,10.13
2018-06-19T10:07:00.067Z,12.73
2018-06-19T10:09:28.496Z,9.87
2018-06-19T10:11:56.996Z,11.37
2018-06-19T10:14:25.351Z,9.63
2018-06-19T10:16:53.808Z,10.80
2018-06-19T10:19:22.338Z,10.93
2018-06-19T10:21:50.821Z,9.53
2018-06-19T10:24:19.201Z,7.67
2018-06-19T10:26:47.749Z,12.77
2018-06-19T10:29:16.177Z,11.47
2018-06-19T10:31:44.651Z,9.40
2018-06-19T10:34:13.088Z,9.87
2018-06-19T10:36:41.602Z,10.13
2018-06-19T10:39:11.106Z,10.83
2018-06-19T10:41:39.636Z,10.50
2018-06-19T10:44:08.075Z,10.37
2018-06-19T10:46:36.496Z,11.20
2018-06-19T10:49:04.900Z,12.80
2018-06-19T10:51:33.304Z,8.87
2018-06-19T10:54:01.747Z,9.77
2018-06-19T10:56:30.147Z,9.47
2018-06-19T10:58:58.578Z,11.00
2018-06-19T11:01:27.006Z,8.30
2018-06-19T11:03:55.688Z,7.30
2018-06-19T11:06:24.208Z,7.90
2018-06-19T11:08:52.636Z,9.33
2018-06-19T11:11:21.336Z,7.93
2018-06-19T11:13:49.741Z,9.93
2018-06-19T11:16:18.160Z,8.33
2018-06-19T11:18:46.563Z,10.80
2018-06-19T11:21:14.976Z,11.97
2018-06-19T11:23:43.485Z,7.80
2018-06-19T11:26:12.159Z,9.63
2018-06-19T11:28:40.633Z,8.73
2018-06-19T11:31:09.192Z,9.40
2018-06-19T11:33:37.668Z,7.47
2018-06-19T11:36:06.232Z,9.40
2018-06-19T11:38:34.708Z,8.07
2018-06-19T11:41:02.771Z,7.47
2018-06-19T11:43:31.288Z,7.73
2018-06-19T11:45:59.391Z,8.47
2018-06-19T11:48:27.908Z,16.13
2018-06-19T11:50:56.358Z,10.60
2018-06-19T11:53:24.941Z,10.67
2018-06-19T11:55:53.389Z,14.07
2018-06-19T11:58:21.812Z,12.77
2018-06-19T12:00:50.580Z,11.87
2018-06-19T12:03:19.019Z,13.33
2018-06-19T12:05:47.440Z,11.10
2018-06-19T12:08:15.904Z,9.50
2018-06-19T12:10:44.373Z,11.60
2018-06-19T12:13:12.800Z,8.93
2018-06-19T12:15:41.238Z,11.97
2018-06-19T12:18:09.673Z,10.43
2018-06-19T12:20:38.145Z,9.27
2018-06-19T12:23:06.969Z,7.13
2018-06-19T12:25:35.505Z,10.43
2018-06-19T12:28:03.998Z,6.80
2018-06-19T12:30:32.403Z,7.10
2018-06-19T12:33:00.785Z,8.23
2018-06-19T12:35:29.255Z,5.70
2018-06-19T12:37:57.697Z,7.97
2018-06-19T12:40:26.132Z,5.63
2018-06-19T12:42:54.523Z,6.40
2018-06-19T12:45:22.927Z,7.30
2018-06-19T12:47:51.463Z,6.27
2018-06-19T12:50:34.331Z,7.90
2018-06-19T12:53:14.702Z,6.93
2018-06-19T12:55:55.296Z,5.93
2018-06-19T12:58:23.788Z,8.37
2018-06-19T13:00:52.180Z,6.20
2018-06-19T13:03:31.890Z,5.63
2018-06-19T13:06:11.728Z,6.37
2018-06-19T13:08:40.136Z,7.47
2018-06-19T13:11:08.943Z,6.13
2018-06-19T13:13:48.649Z,6.97
2018-06-19T13:16:28.301Z,6.37
2018-06-19T13:19:07.908Z,5.23
2018-06-19T13:21:36.369Z,5.53
2018-06-19T13:24:04.832Z,7.67
2018-06-19T13:26:33.448Z,4.77
2018-06-19T13:29:40.862Z,7.00
2018-06-19T13:32:09.367Z,7.00
2018-06-19T13:34:38.341Z,6.27
2018-06-19T13:37:07.115Z,4.87
2018-06-19T13:39:36.579Z,7.03
2018-06-19T13:42:17.410Z,4.77
2018-06-19T13:45:07.823Z,3.30
2018-06-19T13:47:36.211Z,6.40
2018-06-19T13:50:04.712Z,6.33
2018-06-19T13:52:33.088Z,4.43
2018-06-19T13:56:11.400Z,5.60
2018-06-19T13:58:39.880Z,6.33
2018-06-19T14:01:09.144Z,4.90
2018-06-19T14:03:38.029Z,4.63
2018-06-19T14:06:06.470Z,5.50
2018-06-19T14:08:55.738Z,6.20
2018-06-19T14:11:35.652Z,8.20
2018-06-19T14:14:04.060Z,8.10
2018-06-19T14:16:32.621Z,6.00
2018-06-19T14:19:01.735Z,7.17
2018-06-19T14:21:30.317Z,6.40
2018-06-19T14:23:58.892Z,6.27
2018-06-19T14:26:27.346Z,5.90
2018-06-19T14:28:55.815Z,5.03
2018-06-19T14:31:24.248Z,7.10
2018-06-19T14:33:52.690Z,5.30
2018-06-19T14:36:21.159Z,5.87
2018-06-19T14:38:49.564Z,6.77
2018-06-19T14:41:18.084Z,6.30
2018-06-19T14:43:46.549Z,5.50
2018-06-19T14:46:15.065Z,5.37
2018-06-19T14:48:43.539Z,5.93
2018-06-19T14:51:12.046Z,6.80
2018-06-19T14:53:40.520Z,5.37
2018-06-19T14:56:08.936Z,6.00
2018-06-19T14:58:37.345Z,4.33
2018-06-19T15:01:05.801Z,5.57
2018-06-19T15:03:34.258Z,4.87
2018-06-19T15:06:02.680Z,4.37
2018-06-19T15:08:31.133Z,6.73
2018-06-19T15:10:59.588Z,4.07
2018-06-19T15:13:28.024Z,4.10
2018-06-19T15:15:56.492Z,4.10
2018-06-19T15:18:24.981Z,4.00
2018-06-19T15:20:53.389Z,5.10
2018-06-19T15:23:21.891Z,5.60
2018-06-19T15:25:50.315Z,4.97
2018-06-19T15:28:18.478Z,4.47
2018-06-19T15:30:46.962Z,6.93
2018-06-19T15:33:15.367Z,4.30
2018-06-19T15:35:43.765Z,5.70
2018-06-19T15:38:12.173Z,4.77
2018-06-19T15:40:41.406Z,6.87
2018-06-19T15:43:09.818Z,5.03
2018-06-19T15:45:38.219Z,5.10
2018-06-19T15:48:06.741Z,7.40
2018-06-19T15:50:35.177Z,5.43
2018-06-19T15:53:03.618Z,6.13
2018-06-19T15:55:32.189Z,4.93
2018-06-19T15:58:00.629Z,5.83
2018-06-19T16:00:29.040Z,4.87
2018-06-19T16:02:57.518Z,4.47
2018-06-19T16:05:25.920Z,5.40
2018-06-19T16:07:59.614Z,5.30
2018-06-19T16:10:28.022Z,5.97
2018-06-19T16:12:56.430Z,4.43
2018-06-19T16:15:24.898Z,5.07
2018-06-19T16:17:53.343Z,5.17
2018-06-19T16:20:22.013Z,5.23
2018-06-19T16:22:50.605Z,4.00
2018-06-19T16:25:19.035Z,4.40
2018-06-19T16:27:47.694Z,7.00
2018-06-19T16:30:15.816Z,4.73
2018-06-19T16:32:44.219Z,4.33
2018-06-19T16:35:12.649Z,3.60
2018-06-19T16:37:41.115Z,3.63
2018-06-19T16:40:09.555Z,4.80
2018-06-19T16:42:38.003Z,4.00
2018-06-19T16:45:06.451Z,4.40
2018-06-19T16:47:34.817Z,6.63
2018-06-19T16:50:03.336Z,5.97
2018-06-19T16:52:31.752Z,5.27
2018-06-19T16:55:00.161Z,4.10
2018-06-19T16:57:28.594Z,4.17
2018-06-19T16:59:57.043Z,7.30
2018-06-19T17:02:25.476Z,4.17
2018-06-19T17:04:53.890Z,4.97
2018-06-19T17:07:22.354Z,6.63
2018-06-19T17:09:50.617Z,5.43
2018-06-19T17:12:19.029Z,5.07
2018-06-19T17:14:47.424Z,6.17
2018-06-19T17:17:15.810Z,5.07
2018-06-19T17:19:44.901Z,18.40
2018-06-19T17:22:13.628Z,5.10
2018-06-19T17:24:42.024Z,5.87
2018-06-19T17:27:10.689Z,3.87
2018-06-19T17:29:39.185Z,4.50
2018-06-19T17:32:07.627Z,3.57
2018-06-19T17:34:36.100Z,5.03
2018-06-19T17:37:04.574Z,5.93
2018-06-19T17:39:33.033Z,4.70
2018-06-19T17:42:02.038Z,4.93
2018-06-19T17:44:30.471Z,6.23
2018-06-19T17:46:59.273Z,5.93
2018-06-19T17:49:27.726Z,8.47
2018-06-19T17:51:56.154Z,4.87
2018-06-19T17:54:24.603Z,4.10
2018-06-19T17:56:53.074Z,6.23
2018-06-19T17:59:21.512Z,8.33
2018-06-19T18:01:50.178Z,9.33
2018-06-19T18:04:18.713Z,8.23
2018-06-19T18:06:47.185Z,8.77
2018-06-19T18:09:15.693Z,6.77
2018-06-19T18:11:44.300Z,4.93
2018-06-19T18:14:12.697Z,5.23
2018-06-19T18:16:41.131Z,3.83
2018-06-19T18:19:09.658Z,3.77
2018-06-19T18:21:38.314Z,5.50
2018-06-19T18:24:06.840Z,5.63
2018-06-19T18:26:35.355Z,4.13
2018-06-19T18:29:03.971Z,4.67
2018-06-19T18:31:32.434Z,4.77
2018-06-19T18:34:00.993Z,5.43
2018-06-19T18:36:29.468Z,6.27
2018-06-19T18:38:57.958Z,6.20
2018-06-19T18:41:26.516Z,6.00
2018-06-19T18:43:54.700Z,7.57
2018-06-19T18:46:23.187Z,3.40
2018-06-19T18:48:51.745Z,6.47
2018-06-19T18:51:20.284Z,7.00
2018-06-19T18:53:48.822Z,4.00
2018-06-19T18:56:17.288Z,4.17
2018-06-19T18:58:45.802Z,4.97
2018-06-19T19:01:14.268Z,4.80
2018-06-19T19:03:42.797Z,5.00
2018-06-19T19:06:11.281Z,6.97
2018-06-19T19:08:39.851Z,4.80
2018-06-19T19:11:08.394Z,5.17
2018-06-19T19:13:36.833Z,5.10
2018-06-19T19:16:10.597Z,4.40
2018-06-19T19:18:44.436Z,4.87
2018-06-19T19:21:12.991Z,4.77
2018-06-19T19:23:41.603Z,4.40
2018-06-19T19:26:10.159Z,5.13
2018-06-19T19:28:43.926Z,6.77
2018-06-19T19:31:12.411Z,4.87
2018-06-19T19:33:40.879Z,5.17
2018-06-19T19:36:13.656Z,5.37
2018-06-19T19:38:47.436Z,3.93
2018-06-19T19:41:16.101Z,5.17
2018-06-19T19:43:44.588Z,4.20
2018-06-19T19:46:18.488Z,4.13
2018-06-19T19:48:52.184Z,4.70
2018-06-19T19:51:20.724Z,5.07
2018-06-19T19:53:49.175Z,4.93
2018-06-19T19:56:22.987Z,4.40
2018-06-19T19:58:52.820Z,4.00
2018-06-19T20:01:21.602Z,3.90
2018-06-19T20:03:50.053Z,4.60
2018-06-19T20:06:18.511Z,4.80
2018-06-19T20:08:47.003Z,4.63
2018-06-19T20:11:15.490Z,4.30
2018-06-19T20:13:43.904Z,5.17
2018-06-19T20:16:12.372Z,5.73
2018-06-19T20:18:40.892Z,6.20
2018-06-19T20:21:09.443Z,4.77
2018-06-19T20:23:37.857Z,4.20
2018-06-19T20:26:06.293Z,4.20
2018-06-19T20:28:34.693Z,5.77
2018-06-19T20:31:03.096Z,5.80
2018-06-19T20:33:31.537Z,4.80
2018-06-19T20:36:00.102Z,4.50
2018-06-19T20:38:28.524Z,4.83
2018-06-19T20:40:56.984Z,5.77
2018-06-19T20:43:25.396Z,5.07
2018-06-19T20:45:53.966Z,7.70
2018-06-19T20:48:22.430Z,6.50
2018-06-19T20:50:51.162Z,4.83
2018-06-19T20:53:19.982Z,5.50
2018-06-19T20:55:48.465Z,6.83
2018-06-19T20:58:16.940Z,7.27
2018-06-19T21:00:45.361Z,8.43
2018-06-19T21:03:13.884Z,7.03
2018-06-19T21:05:42.288Z,6.90
2018-06-19T21:08:10.716Z,7.53
2018-06-19T21:10:39.199Z,5.87
2018-06-19T21:13:07.617Z,7.70
2018-06-19T21:15:36.120Z,7.43
2018-06-19T21:18:04.605Z,6.73
2018-06-19T21:20:33.004Z,6.33
2018-06-19T21:23:02.267Z,10.43
2018-06-19T21:25:30.678Z,6.97
2018-06-19T21:27:59.101Z,8.00
2018-06-19T21:30:27.538Z,6.90
2018-06-19T21:32:55.964Z,6.77
2018-06-19T21:35:24.368Z,5.87
2018-06-19T21:37:52.864Z,5.50
2018-06-19T21:40:21.308Z,6.03
2018-06-19T21:42:49.731Z,6.30
2018-06-19T21:45:19.496Z,5.30
2018-06-19T21:47:48.593Z,6.77
2018-06-19T21:50:18.603Z,5.80
2018-06-19T21:52:48.605Z,6.73
2018-06-19T21:55:18.436Z,5.20
2018-06-19T21:57:47.723Z,5.70
2018-06-19T22:00:17.844Z,5.90
2018-06-19T22:02:47.628Z,5.97
2018-06-19T22:05:17.036Z,6.20
2018-06-19T22:07:45.436Z,5.00
2018-06-19T22:10:13.868Z,5.83
2018-06-19T22:12:42.293Z,5.90
2018-06-19T22:15:10.692Z,5.30
2018-06-19T22:17:39.124Z,5.37
2018-06-19T22:20:07.553Z,5.73
2018-06-19T22:22:35.992Z,5.37
2018-06-19T22:25:04.454Z,5.63
2018-06-19T22:27:32.895Z,5.80
2018-06-19T22:30:01.311Z,5.77
2018-06-19T22:32:29.722Z,5.20
2018-06-19T22:34:58.291Z,6.07
2018-06-19T22:37:26.716Z,5.37
2018-06-19T22:39:55.168Z,6.60
2018-06-19T22:42:23.828Z,5.00
2018-06-19T22:44:52.247Z,5.80
2018-06-19T22:47:20.637Z,8.87
2018-06-19T22:49:49.023Z,5.17
2018-06-19T22:52:17.457Z,5.73
2018-06-19T22:54:45.852Z,6.53
2018-06-19T22:57:14.406Z,6.73
2018-06-19T22:59:42.906Z,5.90
2018-06-19T23:02:11.517Z,7.90
2018-06-19T23:04:39.909Z,7.17
2018-06-19T23:07:08.334Z,15.00
2018-06-19T23:09:36.832Z,25.80
2018-06-19T23:12:05.329Z,18.87
2018-06-19T23:14:33.721Z,9.50
2018-06-19T23:17:02.085Z,8.97
2018-06-19T23:19:30.517Z,8.50
2018-06-19T23:21:59.025Z,10.40
2018-06-19T23:24:27.457Z,27.23
2018-06-19T23:26:55.857Z,19.53
2018-06-19T23:29:24.349Z,8.87
2018-06-19T23:31:52.772Z,8.27
2018-06-19T23:34:21.217Z,8.70
2018-06-19T23:36:49.724Z,7.87
2018-06-19T23:39:18.178Z,6.70
2018-06-19T23:41:46.573Z,7.10
2018-06-19T23:44:15.004Z,6.83
2018-06-19T23:46:43.384Z,6.93
2018-06-19T23:49:11.899Z,6.43
2018-06-19T23:51:40.327Z,5.90
2018-06-19T23:54:08.725Z,6.17
2018-06-19T23:56:37.134Z,5.97
2018-06-19T23:59:05.562Z,8.10
